createdAt,value
2017-07-12T00:00:32.910Z,0
2017-07-12T00:02:51.271Z,0
2017-07-12T00:03:31.725Z,0
2017-07-12T00:04:12.179Z,0
2017-07-12T00:04:52.636Z,0
2017-07-12T00:05:33.092Z,0
2017-07-12T00:06:13.552Z,0
2017-07-12T00:06:54.008Z,0
2017-07-12T00:07:34.460Z,0
2017-07-12T00:08:14.919Z,0
2017-07-12T00:08:55.375Z,0
2017-07-12T00:09:35.833Z,0
2017-07-12T00:10:16.295Z,0
2017-07-12T00:10:56.747Z,0
2017-07-12T00:11:37.210Z,0
2017-07-12T00:12:17.669Z,0
2017-07-12T00:12:58.132Z,0
2017-07-12T00:13:38.585Z,0
2017-07-12T00:14:19.228Z,0
2017-07-12T00:14:59.539Z,0
2017-07-12T00:15:39.991Z,0
2017-07-12T00:16:20.445Z,0
2017-07-12T00:17:00.901Z,0
2017-07-12T00:17:41.360Z,0
2017-07-12T00:18:21.834Z,0
2017-07-12T00:19:02.291Z,0
2017-07-12T00:19:42.737Z,0
2017-07-12T00:20:23.190Z,0
2017-07-12T00:21:03.644Z,0
2017-07-12T00:21:44.108Z,0
2017-07-12T00:22:24.560Z,0
2017-07-12T00:23:05.019Z,0
2017-07-12T00:23:45.470Z,0
2017-07-12T00:24:25.918Z,0
2017-07-12T00:25:06.370Z,0
2017-07-12T00:25:46.817Z,0
2017-07-12T00:26:27.274Z,0
2017-07-12T00:27:07.736Z,0
2017-07-12T00:27:48.176Z,0
2017-07-12T00:28:28.617Z,0
2017-07-12T00:29:09.073Z,0
2017-07-12T00:29:49.538Z,0
2017-07-12T00:30:29.985Z,0
2017-07-12T00:31:10.444Z,0
2017-07-12T00:31:50.907Z,0
2017-07-12T00:32:31.372Z,0
2017-07-12T00:33:11.828Z,0
2017-07-12T00:33:52.284Z,0
2017-07-12T00:34:32.742Z,0
2017-07-12T00:35:13.198Z,0
2017-07-12T00:35:53.650Z,0
2017-07-12T00:36:34.133Z,0
2017-07-12T00:37:14.588Z,0
2017-07-12T00:37:55.045Z,0
2017-07-12T00:38:35.503Z,0
2017-07-12T00:39:15.957Z,0
2017-07-12T00:39:56.418Z,0
2017-07-12T00:40:36.873Z,0
2017-07-12T00:41:17.329Z,0
2017-07-12T00:41:57.774Z,0
2017-07-12T00:42:38.230Z,0
2017-07-12T00:43:18.688Z,0
2017-07-12T00:43:59.140Z,0
2017-07-12T00:44:39.593Z,0
2017-07-12T00:45:20.047Z,0
2017-07-12T00:46:00.502Z,0
2017-07-12T00:46:40.964Z,0
2017-07-12T00:47:21.413Z,0
2017-07-12T00:48:01.872Z,0
2017-07-12T00:48:42.331Z,0
2017-07-12T00:49:22.797Z,0
2017-07-12T00:50:03.249Z,0
2017-07-12T00:50:43.705Z,0
2017-07-12T00:51:24.164Z,0
2017-07-12T00:52:04.621Z,0
2017-07-12T00:52:45.080Z,0
2017-07-12T00:53:25.540Z,0
2017-07-12T00:54:05.998Z,0
2017-07-12T00:54:46.452Z,0
2017-07-12T00:55:26.910Z,0
2017-07-12T00:56:07.363Z,0
2017-07-12T00:56:47.807Z,0
2017-07-12T00:57:28.274Z,0
2017-07-12T00:58:08.726Z,0
2017-07-12T00:58:50.317Z,0
2017-07-12T00:59:30.770Z,0
2017-07-12T01:00:11.220Z,0
2017-07-12T01:00:51.680Z,0
2017-07-12T01:01:32.137Z,0
2017-07-12T01:02:12.590Z,0
2017-07-12T01:02:53.045Z,0
2017-07-12T01:03:33.503Z,0
2017-07-12T01:04:13.959Z,0
2017-07-12T01:04:54.421Z,0
2017-07-12T01:05:34.883Z,0
2017-07-12T01:06:15.335Z,0
2017-07-12T01:06:55.787Z,0
2017-07-12T01:07:36.237Z,0
2017-07-12T01:08:16.693Z,0
2017-07-12T01:08:57.149Z,0
2017-07-12T01:09:37.609Z,0
2017-07-12T01:10:18.071Z,0
2017-07-12T01:10:58.528Z,0
2017-07-12T01:11:38.986Z,0
2017-07-12T01:12:19.441Z,0
2017-07-12T01:12:59.905Z,0
2017-07-12T01:13:40.377Z,0
2017-07-12T01:14:20.812Z,0
2017-07-12T01:15:01.262Z,0
2017-07-12T01:15:41.720Z,0
2017-07-12T01:16:22.172Z,0
2017-07-12T01:17:02.643Z,0
2017-07-12T01:17:43.096Z,0
2017-07-12T01:18:23.550Z,0
2017-07-12T01:19:04.000Z,0
2017-07-12T01:19:44.456Z,0
2017-07-12T01:20:24.914Z,0
2017-07-12T01:21:05.370Z,0
2017-07-12T01:21:45.826Z,0
2017-07-12T01:22:26.281Z,0
2017-07-12T01:23:06.736Z,0
2017-07-12T01:23:47.191Z,0
2017-07-12T01:24:27.643Z,0
2017-07-12T01:25:08.106Z,0
2017-07-12T01:25:48.566Z,0
2017-07-12T01:26:29.043Z,0
2017-07-12T01:27:09.504Z,0
2017-07-12T01:27:49.961Z,0
2017-07-12T01:28:30.415Z,0
2017-07-12T01:29:10.878Z,0
2017-07-12T01:29:51.362Z,0
2017-07-12T01:30:31.820Z,0
2017-07-12T01:31:12.276Z,0
2017-07-12T01:31:52.730Z,0
2017-07-12T01:32:33.191Z,0
2017-07-12T01:33:13.652Z,0
2017-07-12T01:33:54.111Z,0
2017-07-12T01:34:34.567Z,0
2017-07-12T01:35:15.024Z,0
2017-07-12T01:35:55.465Z,0
2017-07-12T01:36:35.927Z,0
2017-07-12T01:37:16.381Z,0
2017-07-12T01:37:56.826Z,0
2017-07-12T01:38:37.278Z,0
2017-07-12T01:39:17.721Z,0
2017-07-12T01:39:58.170Z,0
2017-07-12T01:40:38.632Z,0
2017-07-12T01:41:19.089Z,0
2017-07-12T01:41:59.542Z,0
2017-07-12T01:42:40.000Z,0
2017-07-12T01:43:20.455Z,0
2017-07-12T01:44:00.913Z,0
2017-07-12T01:44:41.368Z,0
2017-07-12T01:45:21.826Z,0
2017-07-12T01:46:02.287Z,0
2017-07-12T01:46:42.747Z,0
2017-07-12T01:47:23.197Z,0
2017-07-12T01:48:03.670Z,0
2017-07-12T01:48:44.111Z,0
2017-07-12T01:49:24.570Z,0
2017-07-12T01:50:05.032Z,0
2017-07-12T01:50:45.487Z,0
2017-07-12T01:51:25.948Z,0
2017-07-12T01:52:06.418Z,0
2017-07-12T01:52:46.871Z,0
2017-07-12T01:53:27.332Z,0
2017-07-12T01:54:07.784Z,0
2017-07-12T01:54:48.245Z,0
2017-07-12T01:55:28.697Z,0
2017-07-12T01:56:09.224Z,0
2017-07-12T01:56:49.682Z,0
2017-07-12T01:57:30.135Z,0
2017-07-12T01:58:10.587Z,0
2017-07-12T01:58:51.047Z,0
2017-07-12T01:59:31.506Z,0
2017-07-12T02:00:11.962Z,0
2017-07-12T02:00:52.424Z,0
2017-07-12T02:01:32.881Z,0
2017-07-12T02:02:13.343Z,0
2017-07-12T02:02:53.803Z,0
2017-07-12T02:03:34.271Z,0
2017-07-12T02:04:14.724Z,0
2017-07-12T02:04:55.182Z,0
2017-07-12T02:05:35.642Z,0
2017-07-12T02:06:16.101Z,0
2017-07-12T02:06:56.551Z,0
2017-07-12T02:07:37.012Z,0
2017-07-12T02:08:17.467Z,0
2017-07-12T02:08:57.929Z,0
2017-07-12T02:09:38.374Z,0
2017-07-12T02:10:18.832Z,0
2017-07-12T02:10:59.280Z,0
2017-07-12T02:11:39.734Z,0
2017-07-12T02:12:20.188Z,0
2017-07-12T02:13:00.654Z,0
2017-07-12T02:13:41.092Z,0
2017-07-12T02:14:21.546Z,0
2017-07-12T02:15:03.275Z,0
2017-07-12T02:15:43.727Z,0
2017-07-12T02:16:24.185Z,0
2017-07-12T02:17:04.644Z,0
2017-07-12T02:17:45.097Z,0
2017-07-12T02:18:25.552Z,0
2017-07-12T02:19:06.028Z,0
2017-07-12T02:19:46.482Z,0
2017-07-12T02:20:26.945Z,0
2017-07-12T02:21:07.398Z,0
2017-07-12T02:21:47.855Z,0
2017-07-12T02:22:28.336Z,0
2017-07-12T02:23:08.790Z,0
2017-07-12T02:23:49.235Z,0
2017-07-12T02:24:29.690Z,0
2017-07-12T02:25:10.154Z,0
2017-07-12T02:25:50.624Z,0
2017-07-12T02:26:31.082Z,0
2017-07-12T02:27:11.539Z,0
2017-07-12T02:27:51.994Z,0
2017-07-12T02:28:32.454Z,0
2017-07-12T02:29:12.924Z,0
2017-07-12T02:29:53.447Z,0
2017-07-12T02:30:33.905Z,0
2017-07-12T02:31:14.351Z,0
2017-07-12T02:31:54.804Z,0
2017-07-12T02:32:35.257Z,0
2017-07-12T02:33:15.714Z,0
2017-07-12T02:33:56.168Z,0
2017-07-12T02:34:36.631Z,0
2017-07-12T02:35:17.082Z,0
2017-07-12T02:35:57.537Z,0
2017-07-12T02:36:37.990Z,0
2017-07-12T02:37:18.454Z,0
2017-07-12T02:37:58.913Z,0
2017-07-12T02:38:39.368Z,0
2017-07-12T02:39:19.831Z,0
2017-07-12T02:40:00.300Z,0
2017-07-12T02:40:40.738Z,0
2017-07-12T02:41:21.194Z,0
2017-07-12T02:42:01.645Z,0
2017-07-12T02:42:42.098Z,0
2017-07-12T02:43:22.557Z,0
2017-07-12T02:44:03.014Z,0
2017-07-12T02:44:43.470Z,0
2017-07-12T02:45:23.929Z,0
2017-07-12T02:46:04.376Z,0
2017-07-12T02:46:44.835Z,0
2017-07-12T02:47:25.283Z,0
2017-07-12T02:48:05.736Z,0
2017-07-12T02:48:46.197Z,0
2017-07-12T02:49:26.659Z,0
2017-07-12T02:50:07.113Z,0
2017-07-12T02:50:47.569Z,0
2017-07-12T02:51:28.026Z,0
2017-07-12T02:52:08.485Z,0
2017-07-12T02:52:48.946Z,0
2017-07-12T02:53:29.402Z,0
2017-07-12T02:54:09.860Z,0
2017-07-12T02:54:50.319Z,0
2017-07-12T02:55:30.789Z,0
2017-07-12T02:57:28.643Z,0
2017-07-12T02:58:09.100Z,0
2017-07-12T02:58:49.559Z,0
2017-07-12T02:59:30.012Z,0
2017-07-12T03:00:10.466Z,0
2017-07-12T03:00:50.920Z,0
2017-07-12T03:01:31.376Z,0
2017-07-12T03:02:11.830Z,0
2017-07-12T03:02:52.278Z,0
2017-07-12T03:03:32.734Z,0
2017-07-12T03:04:13.193Z,0
2017-07-12T03:04:53.649Z,0
2017-07-12T03:05:34.103Z,0
2017-07-12T03:06:14.556Z,0
2017-07-12T03:06:55.010Z,0
2017-07-12T03:07:35.467Z,0
2017-07-12T03:08:15.925Z,0
2017-07-12T03:08:56.376Z,0
2017-07-12T03:09:36.828Z,0
2017-07-12T03:10:17.273Z,0
2017-07-12T03:10:57.729Z,0
2017-07-12T03:11:38.187Z,0
2017-07-12T03:12:18.631Z,0
2017-07-12T03:12:59.098Z,0
2017-07-12T03:13:39.550Z,0
2017-07-12T03:14:20.025Z,0
2017-07-12T03:15:00.469Z,0
2017-07-12T03:15:40.926Z,0
2017-07-12T03:16:21.386Z,0
2017-07-12T03:17:01.839Z,0
2017-07-12T03:17:42.296Z,0
2017-07-12T03:18:22.756Z,0
2017-07-12T03:19:03.214Z,0
2017-07-12T03:19:43.670Z,0
2017-07-12T03:20:24.127Z,0
2017-07-12T03:22:37.014Z,0
2017-07-12T03:23:17.468Z,0
2017-07-12T03:23:57.954Z,0
2017-07-12T03:24:38.412Z,0
2017-07-12T03:25:18.869Z,0
2017-07-12T03:25:59.327Z,0
2017-07-12T03:26:39.785Z,0
2017-07-12T03:27:20.243Z,0
2017-07-12T03:28:00.709Z,0
2017-07-12T03:28:41.163Z,0
2017-07-12T03:29:21.620Z,0
2017-07-12T03:30:02.079Z,0
2017-07-12T03:30:42.535Z,0
2017-07-12T03:31:22.995Z,0
2017-07-12T03:32:03.447Z,0
2017-07-12T03:32:43.896Z,0
2017-07-12T03:33:24.353Z,0
2017-07-12T03:34:04.801Z,0
2017-07-12T03:34:45.259Z,0
2017-07-12T03:35:25.718Z,4
2017-07-12T03:36:06.174Z,4
2017-07-12T03:36:46.632Z,4
2017-07-12T03:37:27.087Z,4
2017-07-12T03:38:07.545Z,4
2017-07-12T03:38:47.999Z,4
2017-07-12T03:39:28.455Z,4
2017-07-12T03:40:08.906Z,4
2017-07-12T03:40:49.365Z,4
2017-07-12T03:41:29.827Z,4
2017-07-12T03:42:10.286Z,4
2017-07-12T03:42:50.784Z,4
2017-07-12T03:43:31.243Z,4
2017-07-12T03:44:11.697Z,4
2017-07-12T03:44:52.156Z,4
2017-07-12T03:45:32.604Z,4
2017-07-12T03:46:13.068Z,0
2017-07-12T03:46:53.526Z,0
2017-07-12T03:47:33.984Z,4
2017-07-12T03:48:14.439Z,12
2017-07-12T03:48:54.893Z,12
2017-07-12T03:49:35.351Z,12
2017-07-12T03:50:15.812Z,8
2017-07-12T03:50:56.266Z,8
2017-07-12T03:51:36.722Z,24
2017-07-12T03:52:17.178Z,8
2017-07-12T03:52:57.638Z,12
2017-07-12T03:53:38.090Z,12
2017-07-12T03:54:18.550Z,12
2017-07-12T03:54:59.005Z,12
2017-07-12T03:55:39.443Z,12
2017-07-12T03:56:19.894Z,12
2017-07-12T03:57:00.348Z,12
2017-07-12T03:57:40.805Z,12
2017-07-12T03:58:21.258Z,12
2017-07-12T03:59:01.709Z,16
2017-07-12T03:59:42.172Z,12
2017-07-12T04:00:22.619Z,12
2017-07-12T04:01:03.072Z,12
2017-07-12T04:01:43.544Z,16
2017-07-12T04:02:23.995Z,16
2017-07-12T04:03:04.451Z,16
2017-07-12T04:03:44.918Z,16
2017-07-12T04:04:25.372Z,12
2017-07-12T04:05:05.829Z,16
2017-07-12T04:05:46.274Z,16
2017-07-12T04:06:26.755Z,16
2017-07-12T04:07:07.208Z,16
2017-07-12T04:07:47.658Z,16
2017-07-12T04:08:28.109Z,16
2017-07-12T04:09:08.568Z,16
2017-07-12T04:09:49.027Z,16
2017-07-12T04:10:29.486Z,20
2017-07-12T04:11:09.940Z,20
2017-07-12T04:11:50.396Z,24
2017-07-12T04:12:30.853Z,24
2017-07-12T04:13:11.307Z,24
2017-07-12T04:13:51.762Z,28
2017-07-12T04:14:32.219Z,28
2017-07-12T04:15:12.677Z,32
2017-07-12T04:15:53.129Z,32
2017-07-12T04:16:33.585Z,32
2017-07-12T04:17:14.028Z,32
2017-07-12T04:17:54.489Z,32
2017-07-12T04:18:34.948Z,36
2017-07-12T04:19:15.401Z,36
2017-07-12T04:19:55.855Z,40
2017-07-12T04:20:36.315Z,40
2017-07-12T04:21:16.769Z,44
2017-07-12T04:21:57.222Z,48
2017-07-12T04:22:37.679Z,48
2017-07-12T04:23:18.137Z,44
2017-07-12T04:23:58.581Z,48
2017-07-12T04:24:39.036Z,52
2017-07-12T04:25:19.496Z,52
2017-07-12T04:25:59.953Z,52
2017-07-12T04:26:40.408Z,52
2017-07-12T04:27:20.862Z,52
2017-07-12T04:28:01.310Z,52
2017-07-12T04:28:41.766Z,48
2017-07-12T04:29:22.231Z,44
2017-07-12T04:30:02.683Z,40
2017-07-12T04:30:43.128Z,40
2017-07-12T04:31:23.582Z,36
2017-07-12T04:32:04.027Z,36
2017-07-12T04:32:44.503Z,36
2017-07-12T04:33:24.960Z,36
2017-07-12T04:34:05.423Z,40
2017-07-12T04:34:45.871Z,40
2017-07-12T04:35:26.321Z,44
2017-07-12T04:36:06.787Z,52
2017-07-12T04:36:47.234Z,52
2017-07-12T04:37:27.692Z,56
2017-07-12T04:38:08.158Z,56
2017-07-12T04:38:48.618Z,56
2017-07-12T04:39:29.078Z,48
2017-07-12T04:40:09.536Z,44
2017-07-12T04:40:49.997Z,36
2017-07-12T04:41:30.454Z,32
2017-07-12T04:42:10.992Z,32
2017-07-12T04:42:51.454Z,32
2017-07-12T04:43:31.908Z,32
2017-07-12T04:44:12.363Z,32
2017-07-12T04:44:52.815Z,36
2017-07-12T04:45:33.268Z,36
2017-07-12T04:46:13.725Z,36
2017-07-12T04:46:54.174Z,36
2017-07-12T04:47:34.627Z,44
2017-07-12T04:48:15.090Z,40
2017-07-12T04:48:55.548Z,40
2017-07-12T04:49:35.997Z,40
2017-07-12T04:50:16.452Z,40
2017-07-12T04:50:56.908Z,36
2017-07-12T04:51:37.364Z,32
2017-07-12T04:52:17.814Z,36
2017-07-12T04:52:58.272Z,32
2017-07-12T04:53:38.736Z,28
2017-07-12T04:54:19.182Z,28
2017-07-12T04:54:59.637Z,24
2017-07-12T04:55:40.089Z,24
2017-07-12T04:56:20.540Z,24
2017-07-12T04:57:01.002Z,24
2017-07-12T04:57:41.460Z,28
2017-07-12T04:58:21.916Z,32
2017-07-12T04:59:02.378Z,32
2017-07-12T04:59:42.835Z,36
2017-07-12T05:00:23.285Z,40
2017-07-12T05:01:03.737Z,44
2017-07-12T05:01:44.203Z,44
2017-07-12T05:02:24.661Z,52
2017-07-12T05:03:05.109Z,52
2017-07-12T05:03:45.566Z,56
2017-07-12T05:04:26.018Z,56
2017-07-12T05:05:06.463Z,56
2017-07-12T05:05:46.916Z,60
2017-07-12T05:06:27.376Z,60
2017-07-12T05:07:07.837Z,60
2017-07-12T05:07:48.297Z,64
2017-07-12T05:08:28.758Z,68
2017-07-12T05:09:09.214Z,72
2017-07-12T05:09:49.667Z,76
2017-07-12T05:10:30.185Z,84
2017-07-12T05:11:10.610Z,88
2017-07-12T05:11:51.047Z,88
2017-07-12T05:12:31.512Z,92
2017-07-12T05:13:11.958Z,96
2017-07-12T05:13:52.418Z,100
2017-07-12T05:14:32.873Z,112
2017-07-12T05:15:13.359Z,124
2017-07-12T05:15:53.771Z,144
2017-07-12T05:16:34.222Z,168
2017-07-12T05:17:14.683Z,192
2017-07-12T05:17:55.140Z,216
2017-07-12T05:18:35.589Z,240
2017-07-12T05:19:16.047Z,256
2017-07-12T05:19:56.873Z,272
2017-07-12T05:20:37.334Z,272
2017-07-12T05:21:17.789Z,268
2017-07-12T05:21:58.249Z,248
2017-07-12T05:22:38.708Z,220
2017-07-12T05:23:19.166Z,196
2017-07-12T05:23:59.618Z,176
2017-07-12T05:24:40.072Z,164
2017-07-12T05:25:20.529Z,148
2017-07-12T05:26:00.984Z,144
2017-07-12T05:26:41.443Z,140
2017-07-12T05:27:21.898Z,132
2017-07-12T05:28:02.351Z,128
2017-07-12T05:28:42.804Z,120
2017-07-12T05:29:23.268Z,116
2017-07-12T05:30:03.726Z,120
2017-07-12T05:30:44.185Z,120
2017-07-12T05:31:24.692Z,120
2017-07-12T05:32:05.152Z,124
2017-07-12T05:32:45.611Z,128
2017-07-12T05:33:26.062Z,128
2017-07-12T05:34:06.515Z,132
2017-07-12T05:34:46.971Z,128
2017-07-12T05:35:27.426Z,128
2017-07-12T05:36:07.884Z,124
2017-07-12T05:36:48.337Z,128
2017-07-12T05:37:28.797Z,128
2017-07-12T05:38:09.254Z,132
2017-07-12T05:38:49.757Z,136
2017-07-12T05:39:30.216Z,144
2017-07-12T05:40:10.675Z,156
2017-07-12T05:40:51.131Z,168
2017-07-12T05:41:31.586Z,184
2017-07-12T05:42:12.046Z,200
2017-07-12T05:42:52.502Z,216
2017-07-12T05:43:32.958Z,228
2017-07-12T05:44:13.422Z,232
2017-07-12T05:44:53.883Z,228
2017-07-12T05:45:34.328Z,212
2017-07-12T05:46:14.787Z,204
2017-07-12T05:46:55.243Z,204
2017-07-12T05:47:35.692Z,212
2017-07-12T05:48:16.154Z,232
2017-07-12T05:48:56.614Z,256
2017-07-12T05:49:37.068Z,268
2017-07-12T05:50:17.524Z,276
2017-07-12T05:50:57.984Z,280
2017-07-12T05:51:38.432Z,272
2017-07-12T05:52:18.882Z,264
2017-07-12T05:52:59.337Z,252
2017-07-12T05:53:39.795Z,236
2017-07-12T05:54:20.250Z,216
2017-07-12T05:55:00.703Z,196
2017-07-12T05:55:41.158Z,176
2017-07-12T05:56:21.608Z,164
2017-07-12T05:57:02.060Z,152
2017-07-12T05:57:42.517Z,140
2017-07-12T05:58:22.973Z,136
2017-07-12T05:59:03.431Z,128
2017-07-12T05:59:43.883Z,128
2017-07-12T06:00:24.333Z,128
2017-07-12T06:01:04.849Z,132
2017-07-12T06:01:45.301Z,136
2017-07-12T06:02:25.743Z,136
2017-07-12T06:03:06.215Z,136
2017-07-12T06:03:46.671Z,140
2017-07-12T06:04:27.129Z,144
2017-07-12T06:05:07.585Z,152
2017-07-12T06:05:48.040Z,164
2017-07-12T06:06:28.494Z,180
2017-07-12T06:07:08.958Z,188
2017-07-12T06:07:49.415Z,196
2017-07-12T06:08:29.870Z,204
2017-07-12T06:09:10.324Z,208
2017-07-12T06:09:50.782Z,216
2017-07-12T06:10:31.239Z,220
2017-07-12T06:11:11.701Z,224
2017-07-12T06:11:52.155Z,228
2017-07-12T06:12:32.616Z,228
2017-07-12T06:13:13.072Z,224
2017-07-12T06:13:53.528Z,224
2017-07-12T06:14:33.993Z,220
2017-07-12T06:15:14.462Z,220
2017-07-12T06:15:54.923Z,220
2017-07-12T06:16:35.379Z,212
2017-07-12T06:17:15.840Z,204
2017-07-12T06:17:56.299Z,200
2017-07-12T06:18:36.761Z,196
2017-07-12T06:19:17.223Z,196
2017-07-12T06:19:57.660Z,192
2017-07-12T06:20:38.119Z,188
2017-07-12T06:21:18.575Z,184
2017-07-12T06:21:59.033Z,180
2017-07-12T06:22:39.511Z,172
2017-07-12T06:23:19.945Z,160
2017-07-12T06:24:00.441Z,144
2017-07-12T06:24:40.849Z,132
2017-07-12T06:25:21.307Z,120
2017-07-12T06:26:01.758Z,108
2017-07-12T06:26:42.211Z,104
2017-07-12T06:27:22.663Z,100
2017-07-12T06:28:03.129Z,100
2017-07-12T06:28:43.587Z,104
2017-07-12T06:29:24.044Z,108
2017-07-12T06:30:04.502Z,108
2017-07-12T06:30:44.960Z,116
2017-07-12T06:31:25.420Z,124
2017-07-12T06:32:05.878Z,136
2017-07-12T06:32:46.347Z,148
2017-07-12T06:33:26.791Z,156
2017-07-12T06:34:07.254Z,160
2017-07-12T06:34:47.704Z,164
2017-07-12T06:35:28.157Z,168
2017-07-12T06:36:08.599Z,168
2017-07-12T06:36:49.055Z,168
2017-07-12T06:37:29.518Z,164
2017-07-12T06:38:09.982Z,168
2017-07-12T06:38:50.495Z,176
2017-07-12T06:39:30.953Z,188
2017-07-12T06:40:11.345Z,204
2017-07-12T06:40:51.795Z,204
2017-07-12T06:41:32.257Z,208
2017-07-12T06:42:12.724Z,208
2017-07-12T06:42:53.177Z,216
2017-07-12T06:43:33.622Z,228
2017-07-12T06:44:14.075Z,252
2017-07-12T06:44:54.536Z,284
2017-07-12T06:45:34.989Z,308
2017-07-12T06:46:15.442Z,328
2017-07-12T06:46:55.901Z,344
2017-07-12T06:47:36.349Z,368
2017-07-12T06:48:16.804Z,368
2017-07-12T06:48:57.271Z,348
2017-07-12T06:49:37.719Z,324
2017-07-12T06:50:18.186Z,304
2017-07-12T06:50:58.639Z,304
2017-07-12T06:51:39.096Z,316
2017-07-12T06:52:19.548Z,336
2017-07-12T06:53:00.004Z,356
2017-07-12T06:53:40.462Z,372
2017-07-12T06:54:20.920Z,376
2017-07-12T06:55:01.375Z,364
2017-07-12T06:55:41.825Z,352
2017-07-12T06:56:22.283Z,344
2017-07-12T06:57:02.731Z,340
2017-07-12T06:57:43.190Z,340
2017-07-12T06:58:23.647Z,344
2017-07-12T06:59:04.087Z,360
2017-07-12T07:01:32.097Z,336
2017-07-12T07:02:12.554Z,312
2017-07-12T07:02:53.014Z,300
2017-07-12T07:03:33.470Z,316
2017-07-12T07:04:13.927Z,332
2017-07-12T07:04:54.384Z,340
2017-07-12T07:05:34.848Z,328
2017-07-12T07:06:15.302Z,332
2017-07-12T07:06:55.756Z,332
2017-07-12T07:07:36.223Z,320
2017-07-12T07:08:16.708Z,292
2017-07-12T07:08:57.166Z,272
2017-07-12T07:09:37.621Z,256
2017-07-12T07:10:18.081Z,248
2017-07-12T07:10:58.534Z,236
2017-07-12T07:11:38.987Z,228
2017-07-12T07:12:19.444Z,224
2017-07-12T07:12:59.899Z,224
2017-07-12T07:13:40.351Z,220
2017-07-12T07:14:20.794Z,220
2017-07-12T07:15:01.251Z,220
2017-07-12T07:15:41.705Z,220
2017-07-12T07:16:22.163Z,224
2017-07-12T07:18:50.120Z,204
2017-07-12T07:19:30.573Z,196
2017-07-12T07:20:11.028Z,184
2017-07-12T07:20:51.482Z,172
2017-07-12T07:21:31.938Z,160
2017-07-12T07:22:12.397Z,140
2017-07-12T07:22:52.856Z,132
2017-07-12T07:23:33.313Z,128
2017-07-12T07:24:13.763Z,136
2017-07-12T07:24:54.213Z,148
2017-07-12T07:25:34.681Z,160
2017-07-12T07:26:15.137Z,168
2017-07-12T07:26:55.595Z,180
2017-07-12T07:27:36.055Z,192
2017-07-12T07:28:16.506Z,196
2017-07-12T07:28:56.958Z,192
2017-07-12T07:29:37.409Z,196
2017-07-12T07:30:17.875Z,212
2017-07-12T07:30:58.318Z,240
2017-07-12T07:31:38.753Z,260
2017-07-12T07:32:19.208Z,276
2017-07-12T07:32:59.662Z,288
2017-07-12T07:33:40.105Z,292
2017-07-12T07:34:20.559Z,288
2017-07-12T07:35:01.015Z,296
2017-07-12T07:35:41.481Z,300
2017-07-12T07:36:21.939Z,308
2017-07-12T07:37:02.400Z,304
2017-07-12T07:37:42.857Z,292
2017-07-12T07:38:23.331Z,280
2017-07-12T07:39:03.766Z,276
2017-07-12T07:39:44.245Z,256
2017-07-12T07:40:24.673Z,224
2017-07-12T07:41:05.118Z,200
2017-07-12T07:41:45.569Z,204
2017-07-12T07:42:26.020Z,232
2017-07-12T07:43:06.465Z,256
2017-07-12T07:43:46.920Z,268
2017-07-12T07:44:27.376Z,272
2017-07-12T07:45:07.829Z,280
2017-07-12T07:45:48.286Z,280
2017-07-12T07:46:28.740Z,284
2017-07-12T07:47:09.196Z,276
2017-07-12T07:47:49.650Z,264
2017-07-12T07:48:30.117Z,240
2017-07-12T07:49:10.573Z,224
2017-07-12T07:49:51.036Z,216
2017-07-12T07:50:31.487Z,208
2017-07-12T07:51:11.942Z,212
2017-07-12T07:51:52.398Z,220
2017-07-12T07:52:32.854Z,228
2017-07-12T07:53:13.307Z,236
2017-07-12T07:53:53.761Z,240
2017-07-12T07:54:34.212Z,236
2017-07-12T07:55:14.659Z,236
2017-07-12T07:55:55.109Z,232
2017-07-12T07:56:35.567Z,228
2017-07-12T07:57:16.021Z,220
2017-07-12T07:57:56.462Z,216
2017-07-12T07:58:36.919Z,208
2017-07-12T08:00:49.798Z,208
2017-07-12T08:01:30.227Z,212
2017-07-12T08:02:10.685Z,224
2017-07-12T08:02:51.167Z,240
2017-07-12T08:03:31.534Z,260
2017-07-12T08:04:11.998Z,276
2017-07-12T08:04:52.456Z,292
2017-07-12T08:05:32.810Z,308
2017-07-12T08:06:13.283Z,304
2017-07-12T08:06:53.677Z,292
2017-07-12T08:07:34.118Z,284
2017-07-12T08:08:14.505Z,280
2017-07-12T08:08:54.912Z,284
2017-07-12T08:09:35.346Z,292
2017-07-12T08:10:15.761Z,292
2017-07-12T08:12:43.695Z,284
2017-07-12T08:13:24.150Z,288
2017-07-12T08:14:04.615Z,292
2017-07-12T08:14:45.069Z,288
2017-07-12T08:15:25.516Z,284
2017-07-12T08:16:05.965Z,272
2017-07-12T08:16:46.416Z,264
2017-07-12T08:17:26.873Z,248
2017-07-12T08:18:07.377Z,240
2017-07-12T08:18:47.827Z,224
2017-07-12T08:19:28.277Z,204
2017-07-12T08:20:08.729Z,188
2017-07-12T08:20:49.189Z,196
2017-07-12T08:21:29.669Z,200
2017-07-12T08:22:10.118Z,204
2017-07-12T08:24:28.190Z,200
2017-07-12T08:25:08.649Z,196
2017-07-12T08:25:49.113Z,200
2017-07-12T08:26:29.583Z,200
2017-07-12T08:27:10.044Z,196
2017-07-12T08:27:50.479Z,192
2017-07-12T08:28:30.930Z,188
2017-07-12T08:29:11.379Z,188
2017-07-12T08:29:51.805Z,192
2017-07-12T08:30:32.212Z,192
2017-07-12T08:31:12.680Z,188
2017-07-12T08:31:53.283Z,180
2017-07-12T08:32:33.686Z,180
2017-07-12T08:33:14.153Z,180
2017-07-12T08:33:54.584Z,176
2017-07-12T08:35:52.294Z,176
2017-07-12T08:36:32.735Z,180
2017-07-12T08:37:13.182Z,184
2017-07-12T08:37:53.748Z,192
2017-07-12T08:38:34.228Z,200
2017-07-12T08:39:14.676Z,208
2017-07-12T08:41:42.715Z,200
2017-07-12T08:42:23.166Z,204
2017-07-12T08:43:03.590Z,196
2017-07-12T08:43:44.000Z,200
2017-07-12T08:44:24.468Z,204
2017-07-12T08:45:04.843Z,220
2017-07-12T08:45:45.340Z,236
2017-07-12T08:46:25.783Z,228
2017-07-12T08:47:06.231Z,220
2017-07-12T08:47:46.677Z,224
2017-07-12T08:48:27.197Z,236
2017-07-12T08:50:46.075Z,336
2017-07-12T08:51:26.520Z,336
2017-07-12T08:52:07.133Z,328
2017-07-12T08:52:47.674Z,336
2017-07-12T08:53:28.133Z,356
2017-07-12T08:55:40.870Z,396
2017-07-12T08:56:21.295Z,416
2017-07-12T08:58:54.379Z,404
2017-07-12T08:59:34.831Z,400
2017-07-12T09:00:15.300Z,376
2017-07-12T09:00:55.760Z,348
2017-07-12T09:01:36.133Z,336
2017-07-12T09:02:16.584Z,328
2017-07-12T09:02:57.018Z,324
2017-07-12T09:03:37.441Z,296
2017-07-12T09:04:17.860Z,276
2017-07-12T09:04:58.301Z,264
2017-07-12T09:05:38.775Z,240
2017-07-12T09:06:19.240Z,232
2017-07-12T09:06:59.689Z,240
2017-07-12T09:07:40.138Z,244
2017-07-12T09:08:20.597Z,244
2017-07-12T09:09:01.053Z,256
2017-07-12T09:09:41.506Z,264
2017-07-12T09:10:22.096Z,284
2017-07-12T09:11:02.587Z,308
2017-07-12T09:11:43.539Z,328
2017-07-12T09:12:23.989Z,320
2017-07-12T09:13:04.540Z,316
2017-07-12T09:13:44.999Z,304
2017-07-12T09:16:02.854Z,308
2017-07-12T09:16:43.312Z,292
2017-07-12T09:17:23.762Z,268
2017-07-12T09:18:04.216Z,252
2017-07-12T09:18:44.666Z,256
2017-07-12T09:19:25.121Z,260
2017-07-12T09:20:05.578Z,244
2017-07-12T09:20:46.009Z,216
2017-07-12T09:21:26.466Z,188
2017-07-12T09:22:06.945Z,176
2017-07-12T09:22:47.398Z,168
2017-07-12T09:23:27.870Z,172
2017-07-12T09:24:08.291Z,188
2017-07-12T09:33:05.613Z,292
2017-07-12T09:33:46.691Z,320
2017-07-12T09:34:27.144Z,380
2017-07-12T09:35:07.600Z,432
2017-07-12T09:35:48.059Z,448
2017-07-12T09:36:28.502Z,456
2017-07-12T09:37:08.990Z,520
2017-07-12T09:37:49.416Z,644
2017-07-12T09:38:29.875Z,636
2017-07-12T09:39:10.332Z,644
2017-07-12T09:39:50.796Z,620
2017-07-12T09:40:31.247Z,576
2017-07-12T09:41:11.687Z,552
2017-07-12T09:41:52.139Z,524
2017-07-12T09:42:32.591Z,540
2017-07-12T09:43:13.045Z,536
2017-07-12T09:43:53.495Z,476
2017-07-12T09:44:33.949Z,428
2017-07-12T09:45:14.408Z,436
2017-07-12T09:45:54.849Z,468
2017-07-12T09:46:35.298Z,504
2017-07-12T09:47:15.771Z,532
2017-07-12T09:47:56.261Z,552
2017-07-12T09:48:37.101Z,596
2017-07-12T09:49:17.539Z,592
2017-07-12T09:49:57.941Z,564
2017-07-12T09:50:38.382Z,568
2017-07-12T09:51:18.830Z,556
2017-07-12T09:51:59.284Z,496
2017-07-12T09:52:39.744Z,448
2017-07-12T09:53:20.201Z,440
2017-07-12T09:54:00.649Z,472
2017-07-12T09:54:41.096Z,532
2017-07-12T09:55:21.549Z,600
2017-07-12T09:56:02.006Z,680
2017-07-12T09:56:42.454Z,748
2017-07-12T09:57:22.909Z,776
2017-07-12T09:58:03.365Z,744
2017-07-12T09:58:43.830Z,688
2017-07-12T09:59:24.323Z,708
2017-07-12T10:00:04.739Z,756
2017-07-12T10:00:45.195Z,784
2017-07-12T10:01:25.653Z,784
2017-07-12T10:02:06.110Z,784
2017-07-12T10:02:46.554Z,876
2017-07-12T10:03:27.010Z,848
2017-07-12T10:04:07.468Z,760
2017-07-12T10:04:47.909Z,740
2017-07-12T10:05:28.373Z,672
2017-07-12T10:06:08.856Z,532
2017-07-12T10:06:49.272Z,412